Pie Town, New Mexico
Current Conditions -  °F | °C
As of 3:36 PM on Monday 20 Oct 2014 (Local Time) from KGNT Reporting Station
Clear Clear  
Wind Chill: 20°   Ceiling: Unl
Heat Index: 20°   Visibility: 10mi
Dew Point:   Wind: 6mph
Humidity: 33%   Direction: 110°ESE
Pressure: 30.17"   Gusts: 17mph
Location:  34.3°N, 108.15°W
Report Text: KGNT 202136Z AUTO 11005G15KT 10SM CLR 20/03 A3017 RMK AO2
Loading
Personal Weather Stations






























Interactive Weather Map
Tropical Storm Tracking
New forecast layout! Learn more

10-Day Weather Forecast

Advertisements
Track Severe Weather on mobile